sensor_id;sensor_type;location;lat;lon;timestamp;pressure;altitude;pressure_sealevel;temperature;humidity
7662;BME280;30314;48.184;11.510;2023-03-25T00:02:05;95422.31;;;7.92;100.00
7662;BME280;30314;48.184;11.510;2023-03-25T00:04:31;95420.31;;;8.08;100.00
7662;BME280;30314;48.184;11.510;2023-03-25T00:07:00;95411.47;;;7.98;100.00
7662;BME280;30314;48.184;11.510;2023-03-25T00:09:27;95412.03;;;7.95;100.00
7662;BME280;30314;48.184;11.510;2023-03-25T00:11:54;95399.63;;;8.01;100.00
7662;BME280;30314;48.184;11.510;2023-03-25T00:14:20;95390.53;;;7.88;100.00
7662;BME280;30314;48.184;11.510;2023-03-25T00:16:47;95391.72;;;8.01;100.00
7662;BME280;30314;48.184;11.510;2023-03-25T00:19:14;95405.06;;;8.04;100.00
7662;BME280;30314;48.184;11.510;2023-03-25T00:21:43;95404.41;;;7.94;100.00
7662;BME280;30314;48.184;11.510;2023-03-25T00:24:11;95375.44;;;7.74;100.00
7662;BME280;30314;48.184;11.510;2023-03-25T00:26:37;95402.06;;;7.92;100.00
7662;BME280;30314;48.184;11.510;2023-03-25T00:29:08;95407.84;;;7.94;100.00
7662;BME280;30314;48.184;11.510;2023-03-25T00:31:35;95413.75;;;8.05;100.00
7662;BME280;30314;48.184;11.510;2023-03-25T00:34:01;95405.47;;;7.93;100.00
7662;BME280;30314;48.184;11.510;2023-03-25T00:36:28;95397.81;;;7.96;100.00
7662;BME280;30314;48.184;11.510;2023-03-25T00:38:54;95404.19;;;8.14;100.00
7662;BME280;30314;48.184;11.510;2023-03-25T00:41:24;95378.91;;;7.94;100.00
7662;BME280;30314;48.184;11.510;2023-03-25T00:43:56;95408.00;;;8.03;100.00
7662;BME280;30314;48.184;11.510;2023-03-25T00:46:24;95403.84;;;7.97;100.00
7662;BME280;30314;48.184;11.510;2023-03-25T00:48:55;95405.81;;;8.10;100.00
7662;BME280;30314;48.184;11.510;2023-03-25T00:51:23;95414.81;;;8.28;100.00
7662;BME280;30314;48.184;11.510;2023-03-25T00:53:53;95416.16;;;8.26;100.00
7662;BME280;30314;48.184;11.510;2023-03-25T00:56:21;95385.38;;;8.26;100.00
7662;BME280;30314;48.184;11.510;2023-03-25T00:58:48;95386.94;;;8.27;100.00
7662;BME280;30314;48.184;11.510;2023-03-25T01:01:18;95403.81;;;8.45;100.00
7662;BME280;30314;48.184;11.510;2023-03-25T01:03:50;95383.34;;;8.42;100.00
7662;BME280;30314;48.184;11.510;2023-03-25T01:06:26;95394.59;;;8.48;100.00
7662;BME280;30314;48.184;11.510;2023-03-25T01:08:58;95396.69;;;8.46;100.00
7662;BME280;30314;48.184;11.510;2023-03-25T01:11:28;95398.00;;;8.49;100.00
7662;BME280;30314;48.184;11.510;2023-03-25T01:13:57;95388.47;;;8.53;100.00
7662;BME280;30314;48.184;11.510;2023-03-25T01:16:25;95392.38;;;8.55;100.00
7662;BME280;30314;48.184;11.510;2023-03-25T01:18:53;95376.06;;;8.34;100.00
7662;BME280;30314;48.184;11.510;2023-03-25T01:21:20;95361.94;;;8.49;98.96
7662;BME280;30314;48.184;11.510;2023-03-25T01:23:46;95359.66;;;8.42;98.99
7662;BME280;30314;48.184;11.510;2023-03-25T01:26:13;95391.44;;;8.65;99.42
7662;BME280;30314;48.184;11.510;2023-03-25T01:28:41;95391.09;;;8.72;98.91
7662;BME280;30314;48.184;11.510;2023-03-25T01:31:11;95392.47;;;8.69;98.37
7662;BME280;30314;48.184;11.510;2023-03-25T01:33:39;95371.81;;;8.57;98.17
7662;BME280;30314;48.184;11.510;2023-03-25T01:36:06;95377.56;;;8.79;97.25
7662;BME280;30314;48.184;11.510;2023-03-25T01:38:39;95367.50;;;8.67;97.91
7662;BME280;30314;48.184;11.510;2023-03-25T01:41:06;95382.50;;;8.66;97.61
7662;BME280;30314;48.184;11.510;2023-03-25T01:43:33;95372.13;;;8.56;100.00
7662;BME280;30314;48.184;11.510;2023-03-25T01:46:00;95333.97;;;8.34;99.46
7662;BME280;30314;48.184;11.510;2023-03-25T01:48:31;95366.63;;;8.52;100.00
7662;BME280;30314;48.184;11.510;2023-03-25T01:51:07;95367.03;;;8.59;97.96
7662;BME280;30314;48.184;11.510;2023-03-25T01:53:37;95383.50;;;8.70;98.19
7662;BME280;30314;48.184;11.510;2023-03-25T01:56:05;95380.03;;;8.75;98.27
7662;BME280;30314;48.184;11.510;2023-03-25T01:58:32;95371.28;;;8.60;99.74
7662;BME280;30314;48.184;11.510;2023-03-25T02:01:02;95363.56;;;8.64;96.46
7662;BME280;30314;48.184;11.510;2023-03-25T02:03:29;95382.56;;;8.80;96.58
7662;BME280;30314;48.184;11.510;2023-03-25T02:06:02;95378.81;;;8.67;98.03
7662;BME280;30314;48.184;11.510;2023-03-25T02:08:32;95362.59;;;8.60;97.96
7662;BME280;30314;48.184;11.510;2023-03-25T02:11:04;95372.97;;;8.70;96.73
7662;BME280;30314;48.184;11.510;2023-03-25T02:13:34;95359.50;;;8.72;96.28
7662;BME280;30314;48.184;11.510;2023-03-25T02:16:14;95339.88;;;8.64;95.93
7662;BME280;30314;48.184;11.510;2023-03-25T02:19:20;95354.53;;;8.70;97.22
7662;BME280;30314;48.184;11.510;2023-03-25T02:33:10;95346.91;;;8.50;95.59
7662;BME280;30314;48.184;11.510;2023-03-25T02:38:46;95350.75;;;8.38;94.10
7662;BME280;30314;48.184;11.510;2023-03-25T02:43:56;95352.25;;;8.25;94.08
7662;BME280;30314;48.184;11.510;2023-03-25T02:46:26;95347.75;;;8.26;92.51
7662;BME280;30314;48.184;11.510;2023-03-25T02:49:12;95356.72;;;8.25;94.17
7662;BME280;30314;48.184;11.510;2023-03-25T02:51:47;95367.75;;;8.27;93.51
7662;BME280;30314;48.184;11.510;2023-03-25T02:54:16;95360.00;;;8.16;93.84
7662;BME280;30314;48.184;11.510;2023-03-25T02:56:45;95370.44;;;8.22;94.40
7662;BME280;30314;48.184;11.510;2023-03-25T02:59:14;95357.84;;;8.18;92.65
7662;BME280;30314;48.184;11.510;2023-03-25T03:01:41;95361.06;;;8.15;92.98
7662;BME280;30314;48.184;11.510;2023-03-25T03:04:08;95347.22;;;8.04;95.68
7662;BME280;30314;48.184;11.510;2023-03-25T03:06:38;95355.28;;;8.13;96.00
7662;BME280;30314;48.184;11.510;2023-03-25T03:09:16;95347.19;;;8.10;95.96
7662;BME280;30314;48.184;11.510;2023-03-25T03:18:03;95326.00;;;8.01;94.78
7662;BME280;30314;48.184;11.510;2023-03-25T03:20:38;95329.34;;;8.07;94.85
7662;BME280;30314;48.184;11.510;2023-03-25T03:23:14;95330.44;;;8.00;93.34
7662;BME280;30314;48.184;11.510;2023-03-25T03:25:47;95329.72;;;7.95;93.59
7662;BME280;30314;48.184;11.510;2023-03-25T03:28:24;95332.34;;;7.95;92.88
7662;BME280;30314;48.184;11.510;2023-03-25T03:31:06;95337.53;;;7.81;95.25
7662;BME280;30314;48.184;11.510;2023-03-25T03:33:50;95344.53;;;7.85;94.03
7662;BME280;30314;48.184;11.510;2023-03-25T03:36:21;95337.88;;;7.74;93.89
7662;BME280;30314;48.184;11.510;2023-03-25T03:39:11;95354.97;;;7.71;96.05
7662;BME280;30314;48.184;11.510;2023-03-25T03:41:42;95347.66;;;7.68;96.86
7662;BME280;30314;48.184;11.510;2023-03-25T03:44:14;95346.94;;;7.57;96.88
7662;BME280;30314;48.184;11.510;2023-03-25T03:46:52;95360.53;;;7.40;99.53
7662;BME280;30314;48.184;11.510;2023-03-25T03:49:27;95364.34;;;7.53;97.62
7662;BME280;30314;48.184;11.510;2023-03-25T03:52:12;95358.84;;;7.50;99.27
7662;BME280;30314;48.184;11.510;2023-03-25T03:54:51;95363.34;;;7.49;99.02
7662;BME280;30314;48.184;11.510;2023-03-25T03:57:25;95356.63;;;7.32;99.33
7662;BME280;30314;48.184;11.510;2023-03-25T04:00:01;95360.84;;;7.33;99.65
7662;BME280;30314;48.184;11.510;2023-03-25T04:02:44;95371.63;;;7.32;100.00
7662;BME280;30314;48.184;11.510;2023-03-25T04:05:15;95359.56;;;7.31;99.47
7662;BME280;30314;48.184;11.510;2023-03-25T04:07:46;95353.25;;;7.27;99.17
7662;BME280;30314;48.184;11.510;2023-03-25T04:10:20;95373.56;;;7.21;99.99
7662;BME280;30314;48.184;11.510;2023-03-25T04:12:51;95368.31;;;7.21;100.00
7662;BME280;30314;48.184;11.510;2023-03-25T04:15:19;95368.84;;;7.18;100.00
7662;BME280;30314;48.184;11.510;2023-03-25T04:17:46;95365.16;;;7.19;100.00
7662;BME280;30314;48.184;11.510;2023-03-25T04:20:21;95374.53;;;7.30;98.97
7662;BME280;30314;48.184;11.510;2023-03-25T04:22:51;95365.72;;;7.16;99.94
7662;BME280;30314;48.184;11.510;2023-03-25T04:25:18;95381.28;;;7.07;98.60
7662;BME280;30314;48.184;11.510;2023-03-25T04:27:47;95371.25;;;7.14;97.35
7662;BME280;30314;48.184;11.510;2023-03-25T04:30:19;95371.53;;;7.13;98.00
7662;BME280;30314;48.184;11.510;2023-03-25T04:32:46;95368.91;;;7.13;97.48
7662;BME280;30314;48.184;11.510;2023-03-25T04:35:17;95371.75;;;7.16;95.29
7662;BME280;30314;48.184;11.510;2023-03-25T04:37:45;95378.03;;;7.21;95.87
7662;BME280;30314;48.184;11.510;2023-03-25T04:40:15;95388.16;;;7.32;95.91
7662;BME280;30314;48.184;11.510;2023-03-25T04:42:44;95379.13;;;7.14;96.66
7662;BME280;30314;48.184;11.510;2023-03-25T04:45:13;95385.41;;;7.18;94.55
7662;BME280;30314;48.184;11.510;2023-03-25T04:47:43;95391.09;;;7.26;94.83
7662;BME280;30314;48.184;11.510;2023-03-25T04:50:21;95377.13;;;7.01;97.49
7662;BME280;30314;48.184;11.510;2023-03-25T04:52:49;95376.53;;;7.09;97.85
7662;BME280;30314;48.184;11.510;2023-03-25T04:55:16;95371.56;;;7.08;97.80
7662;BME280;30314;48.184;11.510;2023-03-25T04:57:45;95371.53;;;7.13;96.67
7662;BME280;30314;48.184;11.510;2023-03-25T05:00:14;95381.47;;;7.16;98.55
7662;BME280;30314;48.184;11.510;2023-03-25T05:02:46;95356.53;;;7.13;96.29
7662;BME280;30314;48.184;11.510;2023-03-25T05:05:14;95357.00;;;7.21;95.40
7662;BME280;30314;48.184;11.510;2023-03-25T05:07:45;95363.00;;;7.26;96.34
7662;BME280;30314;48.184;11.510;2023-03-25T05:10:12;95355.22;;;7.16;96.67
7662;BME280;30314;48.184;11.510;2023-03-25T05:12:39;95363.00;;;7.26;94.82
7662;BME280;30314;48.184;11.510;2023-03-25T05:15:07;95367.38;;;7.36;94.81
7662;BME280;30314;48.184;11.510;2023-03-25T05:17:34;95369.03;;;7.27;95.46
7662;BME280;30314;48.184;11.510;2023-03-25T05:20:02;95380.56;;;7.31;95.70
7662;BME280;30314;48.184;11.510;2023-03-25T05:22:31;95349.63;;;7.23;94.49
7662;BME280;30314;48.184;11.510;2023-03-25T05:24:58;95366.19;;;7.23;95.26
7662;BME280;30314;48.184;11.510;2023-03-25T05:27:24;95367.66;;;7.35;94.86
7662;BME280;30314;48.184;11.510;2023-03-25T05:29:51;95381.88;;;7.33;95.44
7662;BME280;30314;48.184;11.510;2023-03-25T05:32:17;95378.22;;;7.29;95.29
7662;BME280;30314;48.184;11.510;2023-03-25T05:34:44;95387.56;;;7.41;96.35
7662;BME280;30314;48.184;11.510;2023-03-25T05:37:13;95395.50;;;7.36;93.87
7662;BME280;30314;48.184;11.510;2023-03-25T05:39:40;95385.44;;;7.43;93.66
7662;BME280;30314;48.184;11.510;2023-03-25T05:42:09;95399.00;;;7.55;95.45
7662;BME280;30314;48.184;11.510;2023-03-25T05:44:36;95394.47;;;7.61;92.32
7662;BME280;30314;48.184;11.510;2023-03-25T05:47:03;95400.41;;;7.72;91.61
7662;BME280;30314;48.184;11.510;2023-03-25T05:49:31;95404.41;;;7.69;91.84
7662;BME280;30314;48.184;11.510;2023-03-25T05:51:57;95395.78;;;7.64;92.07
7662;BME280;30314;48.184;11.510;2023-03-25T05:54:27;95414.75;;;7.60;93.64
7662;BME280;30314;48.184;11.510;2023-03-25T05:56:53;95417.56;;;7.64;93.44
7662;BME280;30314;48.184;11.510;2023-03-25T05:59:20;95418.13;;;7.61;93.18
7662;BME280;30314;48.184;11.510;2023-03-25T06:01:46;95399.47;;;7.63;94.70
7662;BME280;30314;48.184;11.510;2023-03-25T06:04:15;95423.16;;;7.57;93.44
7662;BME280;30314;48.184;11.510;2023-03-25T06:06:42;95423.41;;;7.61;92.90
7662;BME280;30314;48.184;11.510;2023-03-25T06:09:08;95441.66;;;7.77;92.31
7662;BME280;30314;48.184;11.510;2023-03-25T06:11:35;95431.97;;;7.72;88.36
7662;BME280;30314;48.184;11.510;2023-03-25T06:14:05;95447.78;;;7.67;87.80
7662;BME280;30314;48.184;11.510;2023-03-25T06:16:32;95444.19;;;7.57;90.55
7662;BME280;30314;48.184;11.510;2023-03-25T06:18:59;95445.41;;;7.65;91.93
7662;BME280;30314;48.184;11.510;2023-03-25T06:21:27;95464.06;;;7.69;92.97
7662;BME280;30314;48.184;11.510;2023-03-25T06:23:56;95469.31;;;7.69;89.54
7662;BME280;30314;48.184;11.510;2023-03-25T06:26:23;95461.50;;;7.64;86.64
7662;BME280;30314;48.184;11.510;2023-03-25T06:28:50;95460.88;;;7.72;83.05
7662;BME280;30314;48.184;11.510;2023-03-25T06:31:19;95463.31;;;7.63;86.16
7662;BME280;30314;48.184;11.510;2023-03-25T06:33:48;95444.56;;;7.45;84.32
7662;BME280;30314;48.184;11.510;2023-03-25T06:36:17;95453.19;;;7.51;84.04
7662;BME280;30314;48.184;11.510;2023-03-25T06:38:47;95475.63;;;7.68;82.00
7662;BME280;30314;48.184;11.510;2023-03-25T06:41:17;95469.69;;;7.57;79.08
7662;BME280;30314;48.184;11.510;2023-03-25T06:43:57;95476.19;;;7.65;80.53
7662;BME280;30314;48.184;11.510;2023-03-25T06:46:26;95489.34;;;7.59;81.23
7662;BME280;30314;48.184;11.510;2023-03-25T06:49:16;95483.09;;;7.55;78.64
7662;BME280;30314;48.184;11.510;2023-03-25T06:51:43;95470.00;;;7.50;79.67
7662;BME280;30314;48.184;11.510;2023-03-25T06:54:09;95479.53;;;7.41;82.78
7662;BME280;30314;48.184;11.510;2023-03-25T06:56:36;95485.28;;;7.43;83.85
7662;BME280;30314;48.184;11.510;2023-03-25T06:59:03;95484.59;;;7.32;83.26
7662;BME280;30314;48.184;11.510;2023-03-25T07:01:30;95492.72;;;7.30;83.85
7662;BME280;30314;48.184;11.510;2023-03-25T07:03:57;95496.66;;;7.33;84.19
7662;BME280;30314;48.184;11.510;2023-03-25T07:06:23;95499.22;;;7.43;84.46
7662;BME280;30314;48.184;11.510;2023-03-25T07:08:50;95501.03;;;7.48;83.82
7662;BME280;30314;48.184;11.510;2023-03-25T07:11:24;95498.97;;;7.40;85.57
7662;BME280;30314;48.184;11.510;2023-03-25T07:13:52;95508.94;;;7.43;86.04
7662;BME280;30314;48.184;11.510;2023-03-25T07:16:20;95522.66;;;7.35;86.14
7662;BME280;30314;48.184;11.510;2023-03-25T07:18:47;95508.78;;;7.29;87.53
7662;BME280;30314;48.184;11.510;2023-03-25T07:21:16;95496.16;;;7.26;86.97
7662;BME280;30314;48.184;11.510;2023-03-25T07:23:42;95518.50;;;7.98;84.62
7662;BME280;30314;48.184;11.510;2023-03-25T07:26:09;95520.50;;;8.60;80.22
7662;BME280;30314;48.184;11.510;2023-03-25T07:28:35;95518.94;;;8.59;77.83
7662;BME280;30314;48.184;11.510;2023-03-25T07:31:08;95531.69;;;8.22;81.23
7662;BME280;30314;48.184;11.510;2023-03-25T07:33:35;95516.75;;;7.88;82.40
7662;BME280;30314;48.184;11.510;2023-03-25T07:36:04;95522.69;;;7.69;84.39
7662;BME280;30314;48.184;11.510;2023-03-25T07:38:32;95535.38;;;7.57;85.41
7662;BME280;30314;48.184;11.510;2023-03-25T07:40:58;95538.38;;;7.40;87.93
7662;BME280;30314;48.184;11.510;2023-03-25T07:43:25;95543.22;;;7.22;86.18
7662;BME280;30314;48.184;11.510;2023-03-25T07:45:54;95527.69;;;7.26;89.21
7662;BME280;30314;48.184;11.510;2023-03-25T07:48:20;95535.38;;;7.57;88.37
7662;BME280;30314;48.184;11.510;2023-03-25T07:50:50;95543.19;;;8.02;87.08
7662;BME280;30314;48.184;11.510;2023-03-25T07:53:17;95551.81;;;8.08;84.37
7662;BME280;30314;48.184;11.510;2023-03-25T07:55:44;95533.06;;;7.85;84.88
7662;BME280;30314;48.184;11.510;2023-03-25T07:58:11;95555.28;;;7.68;87.17
7662;BME280;30314;48.184;11.510;2023-03-25T08:00:37;95535.19;;;7.48;88.19
7662;BME280;30314;48.184;11.510;2023-03-25T08:03:04;95545.78;;;7.72;87.77
7662;BME280;30314;48.184;11.510;2023-03-25T08:05:32;95537.03;;;7.82;90.45
7662;BME280;30314;48.184;11.510;2023-03-25T08:07:58;95538.47;;;7.99;85.30
7662;BME280;30314;48.184;11.510;2023-03-25T08:10:26;95545.44;;;8.14;88.15
7662;BME280;30314;48.184;11.510;2023-03-25T08:12:52;95537.72;;;8.23;85.28
7662;BME280;30314;48.184;11.510;2023-03-25T08:15:19;95538.53;;;8.23;83.94
7662;BME280;30314;48.184;11.510;2023-03-25T08:17:50;95552.56;;;8.13;86.04
7662;BME280;30314;48.184;11.510;2023-03-25T08:20:19;95524.81;;;7.97;90.21
7662;BME280;30314;48.184;11.510;2023-03-25T08:22:46;95550.25;;;8.07;88.34
7662;BME280;30314;48.184;11.510;2023-03-25T08:25:13;95535.72;;;8.14;86.34
7662;BME280;30314;48.184;11.510;2023-03-25T08:27:40;95525.81;;;8.30;87.82
7662;BME280;30314;48.184;11.510;2023-03-25T08:30:07;95516.03;;;8.36;85.91
7662;BME280;30314;48.184;11.510;2023-03-25T08:32:36;95536.69;;;8.72;85.42
7662;BME280;30314;48.184;11.510;2023-03-25T08:35:04;95522.34;;;8.59;85.68
7662;BME280;30314;48.184;11.510;2023-03-25T08:37:31;95522.53;;;8.68;85.02
7662;BME280;30314;48.184;11.510;2023-03-25T08:40:04;95500.69;;;8.68;84.94
7662;BME280;30314;48.184;11.510;2023-03-25T08:42:36;95528.47;;;8.79;89.91
7662;BME280;30314;48.184;11.510;2023-03-25T08:45:04;95522.50;;;8.93;87.76
7662;BME280;30314;48.184;11.510;2023-03-25T08:47:31;95521.69;;;8.92;86.31
7662;BME280;30314;48.184;11.510;2023-03-25T08:49:57;95534.44;;;8.85;87.47
7662;BME280;30314;48.184;11.510;2023-03-25T08:52:24;95545.22;;;8.88;87.65
7662;BME280;30314;48.184;11.510;2023-03-25T08:54:50;95537.53;;;8.68;85.51
7662;BME280;30314;48.184;11.510;2023-03-25T08:57:17;95542.97;;;8.77;89.11
7662;BME280;30314;48.184;11.510;2023-03-25T08:59:44;95545.16;;;8.69;84.92
7662;BME280;30314;48.184;11.510;2023-03-25T09:02:11;95546.50;;;8.67;84.50
7662;BME280;30314;48.184;11.510;2023-03-25T09:04:38;95546.16;;;8.49;86.61
7662;BME280;30314;48.184;11.510;2023-03-25T09:07:05;95543.16;;;8.31;87.77
7662;BME280;30314;48.184;11.510;2023-03-25T09:09:41;95536.31;;;8.36;87.86
7662;BME280;30314;48.184;11.510;2023-03-25T09:12:08;95529.81;;;8.28;92.34
7662;BME280;30314;48.184;11.510;2023-03-25T09:14:35;95554.25;;;8.53;85.76
7662;BME280;30314;48.184;11.510;2023-03-25T09:17:02;95534.66;;;8.64;85.82
7662;BME280;30314;48.184;11.510;2023-03-25T09:19:28;95528.13;;;8.62;85.47
7662;BME280;30314;48.184;11.510;2023-03-25T09:21:55;95532.91;;;8.79;88.57
7662;BME280;30314;48.184;11.510;2023-03-25T09:24:21;95518.78;;;8.94;83.74
7662;BME280;30314;48.184;11.510;2023-03-25T09:26:49;95535.13;;;9.15;82.21
7662;BME280;30314;48.184;11.510;2023-03-25T09:29:16;95530.88;;;9.38;85.00
7662;BME280;30314;48.184;11.510;2023-03-25T09:31:42;95522.91;;;9.63;82.66
7662;BME280;30314;48.184;11.510;2023-03-25T09:34:09;95520.75;;;9.65;80.87
7662;BME280;30314;48.184;11.510;2023-03-25T09:36:35;95516.59;;;9.78;79.64
7662;BME280;30314;48.184;11.510;2023-03-25T09:39:02;95512.25;;;9.68;77.37
7662;BME280;30314;48.184;11.510;2023-03-25T09:42:12;95529.06;;;9.72;78.24
7662;BME280;30314;48.184;11.510;2023-03-25T09:47:38;95505.47;;;9.81;81.43
7662;BME280;30314;48.184;11.510;2023-03-25T09:50:11;95506.38;;;9.90;75.54
7662;BME280;30314;48.184;11.510;2023-03-25T09:55:42;95509.78;;;9.91;75.22
7662;BME280;30314;48.184;11.510;2023-03-25T10:00:54;95512.78;;;10.17;78.70
7662;BME280;30314;48.184;11.510;2023-03-25T10:03:30;95525.94;;;10.03;77.71
7662;BME280;30314;48.184;11.510;2023-03-25T10:06:11;95511.44;;;9.86;76.85
7662;BME280;30314;48.184;11.510;2023-03-25T10:09:07;95501.41;;;9.89;77.57
7662;BME280;30314;48.184;11.510;2023-03-25T10:14:32;95488.84;;;10.13;78.67
7662;BME280;30314;48.184;11.510;2023-03-25T10:17:04;95487.38;;;10.21;72.35
7662;BME280;30314;48.184;11.510;2023-03-25T10:20:34;95479.38;;;10.40;71.37
7662;BME280;30314;48.184;11.510;2023-03-25T10:23:18;95486.78;;;10.52;75.40
7662;BME280;30314;48.184;11.510;2023-03-25T10:25:53;95462.34;;;10.47;75.74
7662;BME280;30314;48.184;11.510;2023-03-25T10:28:27;95448.16;;;10.28;68.53
7662;BME280;30314;48.184;11.510;2023-03-25T10:30:56;95477.00;;;10.25;68.49
7662;BME280;30314;48.184;11.510;2023-03-25T10:33:28;95469.84;;;10.11;75.12
7662;BME280;30314;48.184;11.510;2023-03-25T10:35:57;95436.84;;;10.00;68.73
7662;BME280;30314;48.184;11.510;2023-03-25T10:38:25;95464.03;;;10.14;72.66
7662;BME280;30314;48.184;11.510;2023-03-25T10:41:24;95460.00;;;10.03;69.76
7662;BME280;30314;48.184;11.510;2023-03-25T10:43:52;95466.84;;;10.18;74.88
7662;BME280;30314;48.184;11.510;2023-03-25T10:48:57;95439.66;;;9.90;68.68
7662;BME280;30314;48.184;11.510;2023-03-25T10:51:26;95453.53;;;10.09;73.21
7662;BME280;30314;48.184;11.510;2023-03-25T10:53:54;95440.44;;;10.04;68.25
7662;BME280;30314;48.184;11.510;2023-03-25T10:56:24;95443.78;;;10.24;72.54
7662;BME280;30314;48.184;11.510;2023-03-25T10:58:53;95440.25;;;10.28;67.20
7662;BME280;30314;48.184;11.510;2023-03-25T11:01:37;95444.84;;;10.51;66.50
7662;BME280;30314;48.184;11.510;2023-03-25T11:04:06;95462.72;;;10.82;64.37
7662;BME280;30314;48.184;11.510;2023-03-25T11:06:37;95431.06;;;10.54;68.68
7662;BME280;30314;48.184;11.510;2023-03-25T11:09:27;95442.72;;;10.53;68.89
7662;BME280;30314;48.184;11.510;2023-03-25T11:12:04;95447.88;;;10.72;67.14
7662;BME280;30314;48.184;11.510;2023-03-25T11:14:36;95449.72;;;10.71;67.53
7662;BME280;30314;48.184;11.510;2023-03-25T11:17:12;95432.03;;;10.58;67.35
7662;BME280;30314;48.184;11.510;2023-03-25T11:19:47;95446.91;;;10.26;68.79
7662;BME280;30314;48.184;11.510;2023-03-25T11:22:21;95438.22;;;10.25;72.61
7662;BME280;30314;48.184;11.510;2023-03-25T11:24:51;95420.63;;;10.21;69.54
7662;BME280;30314;48.184;11.510;2023-03-25T11:27:24;95420.91;;;10.33;72.66
7662;BME280;30314;48.184;11.510;2023-03-25T11:29:54;95388.38;;;10.10;70.88
7662;BME280;30314;48.184;11.510;2023-03-25T11:32:24;95404.59;;;10.31;66.57
7662;BME280;30314;48.184;11.510;2023-03-25T11:35:00;95410.91;;;10.58;71.43
7662;BME280;30314;48.184;11.510;2023-03-25T11:37:28;95409.63;;;10.55;65.74
7662;BME280;30314;48.184;11.510;2023-03-25T11:40:03;95414.69;;;10.80;66.41
7662;BME280;30314;48.184;11.510;2023-03-25T11:42:38;95386.06;;;10.59;66.32
7662;BME280;30314;48.184;11.510;2023-03-25T11:45:05;95394.94;;;10.77;69.65
7662;BME280;30314;48.184;11.510;2023-03-25T11:47:35;95391.41;;;10.82;64.65
7662;BME280;30314;48.184;11.510;2023-03-25T11:50:04;95399.25;;;10.59;65.17
7662;BME280;30314;48.184;11.510;2023-03-25T11:52:43;95395.38;;;10.42;67.40
7662;BME280;30314;48.184;11.510;2023-03-25T11:56:19;95423.75;;;10.23;67.54
7662;BME280;30314;48.184;11.510;2023-03-25T11:58:18;95406.06;;;10.23;67.10
7662;BME280;30314;48.184;11.510;2023-03-25T12:00:49;95391.38;;;10.31;67.76
7662;BME280;30314;48.184;11.510;2023-03-25T12:03:18;95391.28;;;10.36;67.74
7662;BME280;30314;48.184;11.510;2023-03-25T12:05:58;95379.34;;;10.25;70.00
7662;BME280;30314;48.184;11.510;2023-03-25T12:08:28;95377.63;;;10.20;71.50
7662;BME280;30314;48.184;11.510;2023-03-25T12:11:06;95375.13;;;10.52;71.50
7662;BME280;30314;48.184;11.510;2023-03-25T12:16:39;95381.19;;;10.89;68.21
7662;BME280;30314;48.184;11.510;2023-03-25T12:22:02;95366.81;;;10.81;62.81
7662;BME280;30314;48.184;11.510;2023-03-25T12:27:37;95383.00;;;10.80;65.51
7662;BME280;30314;48.184;11.510;2023-03-25T12:30:22;95358.25;;;10.76;66.82
7662;BME280;30314;48.184;11.510;2023-03-25T12:35:46;95382.97;;;10.43;69.20
7662;BME280;30314;48.184;11.510;2023-03-25T12:38:21;95373.78;;;10.40;70.67
7662;BME280;30314;48.184;11.510;2023-03-25T12:41:14;95380.38;;;10.52;71.16
7662;BME280;30314;48.184;11.510;2023-03-25T12:49:15;95372.44;;;10.66;73.42
7662;BME280;30314;48.184;11.510;2023-03-25T12:52:15;95380.19;;;10.62;69.09
7662;BME280;30314;48.184;11.510;2023-03-25T12:54:50;95381.75;;;10.63;66.67
7662;BME280;30314;48.184;11.510;2023-03-25T12:57:37;95366.97;;;10.62;67.24
7662;BME280;30314;48.184;11.510;2023-03-25T13:09:03;95352.69;;;10.63;65.56
7662;BME280;30314;48.184;11.510;2023-03-25T13:11:38;95383.47;;;10.82;65.03
7662;BME280;30314;48.184;11.510;2023-03-25T13:14:28;95352.00;;;10.71;64.60
7662;BME280;30314;48.184;11.510;2023-03-25T13:16:58;95352.78;;;10.95;67.80
7662;BME280;30314;48.184;11.510;2023-03-25T13:19:30;95360.00;;;11.03;67.10
7662;BME280;30314;48.184;11.510;2023-03-25T13:22:03;95355.13;;;10.96;63.92
7662;BME280;30314;48.184;11.510;2023-03-25T13:24:42;95361.59;;;10.67;62.75
7662;BME280;30314;48.184;11.510;2023-03-25T13:27:12;95354.44;;;10.68;64.04
7662;BME280;30314;48.184;11.510;2023-03-25T13:29:44;95366.41;;;10.65;67.74
7662;BME280;30314;48.184;11.510;2023-03-25T13:32:33;95365.47;;;10.84;68.43
7662;BME280;30314;48.184;11.510;2023-03-25T13:35:06;95361.31;;;10.92;62.90
7662;BME280;30314;48.184;11.510;2023-03-25T13:37:39;95374.00;;;10.81;63.92
7662;BME280;30314;48.184;11.510;2023-03-25T13:40:29;95347.25;;;10.60;65.13
7662;BME280;30314;48.184;11.510;2023-03-25T13:43:06;95379.00;;;10.68;66.92
7662;BME280;30314;48.184;11.510;2023-03-25T13:45:47;95363.09;;;10.82;67.20
7662;BME280;30314;48.184;11.510;2023-03-25T13:51:03;95360.25;;;10.93;65.62
7662;BME280;30314;48.184;11.510;2023-03-25T13:53:34;95361.53;;;10.81;64.81
7662;BME280;30314;48.184;11.510;2023-03-25T13:59:10;95353.84;;;10.71;67.04
7662;BME280;30314;48.184;11.510;2023-03-25T14:02:09;95355.72;;;10.70;66.49
7662;BME280;30314;48.184;11.510;2023-03-25T14:05:04;95338.53;;;10.59;62.29
7662;BME280;30314;48.184;11.510;2023-03-25T14:13:30;95359.91;;;10.71;63.98
7662;BME280;30314;48.184;11.510;2023-03-25T14:16:10;95359.53;;;10.64;62.57
7662;BME280;30314;48.184;11.510;2023-03-25T14:18:43;95349.09;;;10.59;64.91
7662;BME280;30314;48.184;11.510;2023-03-25T14:23:48;95362.00;;;10.61;63.41
7662;BME280;30314;48.184;11.510;2023-03-25T14:26:25;95345.75;;;10.67;63.76
7662;BME280;30314;48.184;11.510;2023-03-25T14:28:53;95349.75;;;10.65;61.90
7662;BME280;30314;48.184;11.510;2023-03-25T14:31:28;95362.78;;;10.61;62.41
7662;BME280;30314;48.184;11.510;2023-03-25T14:44:32;95340.97;;;10.69;65.63
7662;BME280;30314;48.184;11.510;2023-03-25T14:47:25;95356.03;;;10.92;61.16
7662;BME280;30314;48.184;11.510;2023-03-25T14:52:44;95340.72;;;10.80;64.09
7662;BME280;30314;48.184;11.510;2023-03-25T14:55:35;95345.81;;;10.76;62.28
7662;BME280;30314;48.184;11.510;2023-03-25T14:58:22;95350.47;;;10.93;63.77
7662;BME280;30314;48.184;11.510;2023-03-25T15:01:00;95355.56;;;10.90;62.56
7662;BME280;30314;48.184;11.510;2023-03-25T15:03:33;95324.63;;;10.90;64.14